createdAt,value
2023-01-21T00:01:17.278Z,5.97
2023-01-21T00:04:19.384Z,4.70
2023-01-21T00:07:21.084Z,8.30
2023-01-21T00:10:22.767Z,4.67
2023-01-21T00:13:24.335Z,6.70
2023-01-21T00:16:25.857Z,5.80
2023-01-21T00:19:29.145Z,7.97
2023-01-21T00:22:30.805Z,6.90
2023-01-21T00:25:32.416Z,8.27
2023-01-21T00:28:34.879Z,8.80
2023-01-21T00:31:36.588Z,7.70
2023-01-21T00:34:38.331Z,8.03
2023-01-21T00:37:39.923Z,9.43
2023-01-21T00:40:42.936Z,9.40
2023-01-21T00:43:44.592Z,9.40
2023-01-21T00:46:46.179Z,7.83
2023-01-21T00:49:47.934Z,9.57
2023-01-21T00:52:49.545Z,8.70
2023-01-21T00:55:51.118Z,10.87
2023-01-21T00:58:52.856Z,25.97
2023-01-21T01:01:54.938Z,17.23
2023-01-21T01:04:56.579Z,10.07
2023-01-21T01:07:58.194Z,12.73
2023-01-21T01:11:00.402Z,11.93
2023-01-21T01:14:02.147Z,11.33
2023-01-21T01:17:04.830Z,12.33
2023-01-21T01:20:06.864Z,16.00
2023-01-21T01:23:08.477Z,11.80
2023-01-21T01:26:11.452Z,15.97
2023-01-21T01:29:13.617Z,14.67
2023-01-21T01:32:15.281Z,14.17
2023-01-21T01:35:16.899Z,13.90
2023-01-21T01:38:20.320Z,20.93
2023-01-21T01:41:27.513Z,15.50
2023-01-21T01:44:47.855Z,17.70
2023-01-21T01:47:58.193Z,18.10
2023-01-21T01:51:01.910Z,19.73
2023-01-21T01:54:04.888Z,15.10
2023-01-21T01:57:08.191Z,23.67
2023-01-21T02:00:11.392Z,21.07
2023-01-21T02:03:32.289Z,19.97
2023-01-21T02:06:34.157Z,15.87
2023-01-21T02:09:35.950Z,17.67
2023-01-21T02:12:38.341Z,19.20
2023-01-21T02:15:55.059Z,22.60
2023-01-21T02:19:15.480Z,23.63
2023-01-21T02:22:17.248Z,26.30
2023-01-21T02:25:18.833Z,49.10
2023-01-21T02:28:23.466Z,30.40
2023-01-21T02:31:43.677Z,31.43
2023-01-21T02:34:52.763Z,24.20
2023-01-21T02:38:17.433Z,48.40
2023-01-21T02:41:19.005Z,138.37
2023-01-21T02:44:35.237Z,116.63
2023-01-21T02:47:44.046Z,86.63
2023-01-21T02:50:46.918Z,30.90
2023-01-21T02:53:48.472Z,21.63
2023-01-21T02:56:50.127Z,25.50
2023-01-21T02:59:53.651Z,19.57
2023-01-21T03:02:55.828Z,21.17
2023-01-21T03:05:57.787Z,14.63
2023-01-21T03:09:02.162Z,11.20
2023-01-21T03:12:13.311Z,17.47
2023-01-21T03:15:41.629Z,17.83
2023-01-21T03:18:45.458Z,16.63
2023-01-21T03:21:48.569Z,20.07
2023-01-21T03:24:51.928Z,19.70
2023-01-21T03:27:54.099Z,39.90
2023-01-21T03:30:59.847Z,114.07
2023-01-21T03:34:03.290Z,155.20
2023-01-21T03:37:08.272Z,87.13
2023-01-21T03:40:19.162Z,62.07
2023-01-21T03:43:21.202Z,20.83
2023-01-21T03:46:26.698Z,20.60
2023-01-21T03:50:06.724Z,25.73
2023-01-21T03:53:08.499Z,22.57
2023-01-21T03:56:10.265Z,26.53
2023-01-21T03:59:11.962Z,21.57
2023-01-21T04:02:13.614Z,23.07
2023-01-21T04:05:15.370Z,19.73
2023-01-21T04:08:16.996Z,22.97
2023-01-21T04:11:18.606Z,18.00
2023-01-21T04:14:20.193Z,21.30
2023-01-21T04:17:21.753Z,18.00
2023-01-21T04:20:23.323Z,17.53
2023-01-21T04:23:25.007Z,18.73
2023-01-21T04:26:26.748Z,15.63
2023-01-21T04:29:28.392Z,17.90
2023-01-21T04:32:30.018Z,21.10
2023-01-21T04:35:31.763Z,19.07
2023-01-21T04:38:33.385Z,22.53
2023-01-21T04:41:34.961Z,19.63
2023-01-21T04:44:36.641Z,27.70
2023-01-21T04:47:42.536Z,15.23
2023-01-21T04:50:44.292Z,18.00
2023-01-21T04:53:45.928Z,17.30
2023-01-21T04:56:47.662Z,18.13
2023-01-21T04:59:49.324Z,17.90
2023-01-21T05:02:50.898Z,11.20
2023-01-21T05:05:52.443Z,14.53
2023-01-21T05:08:54.067Z,13.07
2023-01-21T05:11:55.633Z,15.37
2023-01-21T05:15:00.307Z,7.80
2023-01-21T05:18:02.000Z,9.73
2023-01-21T05:21:03.771Z,10.43
2023-01-21T05:24:05.516Z,16.67
2023-01-21T05:27:07.173Z,11.43
2023-01-21T05:30:09.089Z,5.17
2023-01-21T05:33:10.673Z,6.00
2023-01-21T05:36:12.345Z,5.27
2023-01-21T05:39:14.058Z,4.50
2023-01-21T05:42:15.717Z,3.63
2023-01-21T05:45:17.366Z,3.60
2023-01-21T05:48:19.221Z,7.60
2023-01-21T05:51:20.879Z,3.03
2023-01-21T05:54:22.569Z,5.70
2023-01-21T05:57:24.257Z,4.13
2023-01-21T06:00:25.857Z,1.60
2023-01-21T06:03:27.444Z,2.13
2023-01-21T06:06:29.050Z,3.03
2023-01-21T06:09:30.635Z,3.60
2023-01-21T06:12:32.205Z,2.17
2023-01-21T06:15:33.918Z,1.97
2023-01-21T06:18:35.862Z,6.67
2023-01-21T06:21:37.540Z,6.97
2023-01-21T06:24:39.144Z,1.93
2023-01-21T06:27:40.800Z,4.23
2023-01-21T06:30:42.523Z,5.47
2023-01-21T06:33:44.193Z,2.63
2023-01-21T06:36:45.897Z,3.20
2023-01-21T06:39:47.464Z,2.97
2023-01-21T06:42:49.418Z,5.73
2023-01-21T06:45:51.076Z,7.40
2023-01-21T06:48:53.833Z,7.23
2023-01-21T06:51:56.391Z,6.50
2023-01-21T06:54:58.036Z,9.30
2023-01-21T06:57:59.620Z,13.50
2023-01-21T07:01:01.156Z,12.20
2023-01-21T07:04:03.503Z,18.07
2023-01-21T07:07:05.185Z,6.60
2023-01-21T07:10:09.142Z,8.40
2023-01-21T07:13:10.771Z,9.80
2023-01-21T07:16:13.122Z,6.87
2023-01-21T07:19:14.792Z,7.60
2023-01-21T07:22:16.386Z,9.93
2023-01-21T07:25:18.419Z,10.07
2023-01-21T07:28:20.154Z,18.07
2023-01-21T07:31:21.909Z,9.80
2023-01-21T07:34:23.602Z,7.87
2023-01-21T07:37:25.231Z,9.67
2023-01-21T07:40:26.930Z,6.03
2023-01-21T07:43:28.590Z,6.97
2023-01-21T07:46:30.210Z,2.37
2023-01-21T07:49:31.825Z,3.33
2023-01-21T07:52:33.440Z,4.73
2023-01-21T07:55:35.119Z,2.83
2023-01-21T07:58:37.012Z,4.93
2023-01-21T08:01:38.691Z,5.90
2023-01-21T08:04:40.298Z,3.00
2023-01-21T08:07:45.208Z,5.37
2023-01-21T08:10:58.326Z,5.77
2023-01-21T08:13:59.913Z,3.60
2023-01-21T08:17:01.897Z,7.53
2023-01-21T08:20:04.168Z,4.33
2023-01-21T08:23:05.745Z,7.27
2023-01-21T08:26:07.585Z,3.63
2023-01-21T08:29:09.203Z,6.63
2023-01-21T08:32:10.811Z,4.77
2023-01-21T08:35:12.521Z,11.73
2023-01-21T08:38:14.164Z,5.20
2023-01-21T08:41:16.613Z,6.50
2023-01-21T08:44:18.282Z,4.17
2023-01-21T08:47:19.950Z,4.20
2023-01-21T08:50:22.057Z,5.80
2023-01-21T08:53:23.791Z,5.40
2023-01-21T08:56:26.257Z,5.60
2023-01-21T08:59:30.009Z,10.03
2023-01-21T09:02:37.311Z,7.60
2023-01-21T09:05:38.929Z,7.20
2023-01-21T09:08:42.149Z,3.23
2023-01-21T09:11:43.880Z,5.43
2023-01-21T09:14:45.491Z,6.33
2023-01-21T09:17:47.065Z,2.97
2023-01-21T09:20:48.822Z,7.10
2023-01-21T09:23:50.455Z,5.77
2023-01-21T09:26:52.474Z,7.70
2023-01-21T09:29:54.828Z,5.03
2023-01-21T09:32:56.432Z,3.80
2023-01-21T09:35:59.829Z,4.93
2023-01-21T09:39:02.171Z,8.00
2023-01-21T09:42:03.716Z,5.20
2023-01-21T09:45:05.599Z,5.97
2023-01-21T09:48:07.806Z,3.03
2023-01-21T09:51:32.467Z,8.17
2023-01-21T09:54:35.784Z,8.13
2023-01-21T09:57:55.986Z,7.47
2023-01-21T10:00:57.515Z,10.80
2023-01-21T10:04:02.306Z,5.50
2023-01-21T10:07:09.116Z,12.50
2023-01-21T10:10:16.837Z,13.13
2023-01-21T10:13:21.310Z,7.10
2023-01-21T10:16:33.572Z,9.23
2023-01-21T10:19:40.739Z,8.73
2023-01-21T10:22:52.957Z,4.00
2023-01-21T10:25:54.768Z,5.90
2023-01-21T10:28:56.449Z,9.20
2023-01-21T10:32:05.374Z,7.60
2023-01-21T10:35:12.915Z,6.23
2023-01-21T10:38:34.111Z,5.70
2023-01-21T10:41:47.723Z,4.40
2023-01-21T10:45:08.295Z,8.47
2023-01-21T10:48:12.403Z,7.87
2023-01-21T10:51:20.873Z,8.13
2023-01-21T10:54:30.236Z,8.67
2023-01-21T10:57:50.277Z,4.93
2023-01-21T11:00:55.173Z,5.33
2023-01-21T11:04:03.861Z,7.17
2023-01-21T11:07:08.694Z,9.80
2023-01-21T11:10:14.900Z,7.00
2023-01-21T11:13:18.091Z,5.97
2023-01-21T11:16:32.308Z,6.83
2023-01-21T11:19:33.948Z,8.90
2023-01-21T11:22:45.386Z,5.83
2023-01-21T11:25:49.822Z,8.63
2023-01-21T11:29:10.565Z,15.63
2023-01-21T11:32:22.644Z,10.10
2023-01-21T11:35:24.462Z,8.43
2023-01-21T11:38:26.107Z,8.70
2023-01-21T11:41:27.716Z,8.87
2023-01-21T11:44:29.400Z,9.70
2023-01-21T11:47:38.672Z,8.03
2023-01-21T11:50:40.884Z,7.77
2023-01-21T11:53:42.493Z,5.93
2023-01-21T11:57:02.840Z,10.13
2023-01-21T12:00:07.568Z,13.13
2023-01-21T12:03:18.422Z,14.03
2023-01-21T12:06:21.688Z,11.53
2023-01-21T12:09:24.072Z,11.90
2023-01-21T12:12:38.255Z,14.20
2023-01-21T12:15:52.392Z,13.33
2023-01-21T12:18:57.112Z,14.23
2023-01-21T12:22:17.630Z,19.03
2023-01-21T12:25:30.521Z,16.40
2023-01-21T12:28:50.804Z,20.93
2023-01-21T12:31:55.315Z,19.70
2023-01-21T12:34:57.056Z,19.17
2023-01-21T12:37:58.802Z,24.30
2023-01-21T12:41:03.160Z,66.23
2023-01-21T12:44:14.097Z,31.20
2023-01-21T12:47:18.751Z,6.80
2023-01-21T12:50:29.877Z,13.37
2023-01-21T12:53:40.680Z,16.30
2023-01-21T12:56:50.894Z,12.50
2023-01-21T12:59:52.417Z,8.33
2023-01-21T13:03:04.658Z,9.33
2023-01-21T13:06:11.725Z,8.93
2023-01-21T13:09:16.304Z,8.73
2023-01-21T13:12:22.682Z,10.97
2023-01-21T13:15:28.234Z,9.00
2023-01-21T13:18:32.766Z,6.87
2023-01-21T13:21:53.409Z,9.40
2023-01-21T13:24:55.178Z,13.20
2023-01-21T13:27:59.223Z,13.43
2023-01-21T13:31:04.106Z,13.10
2023-01-21T13:34:05.705Z,19.20
2023-01-21T13:37:17.154Z,17.57
2023-01-21T13:40:23.501Z,26.30
2023-01-21T13:43:49.856Z,18.40
2023-01-21T13:46:52.666Z,19.67
2023-01-21T13:50:06.765Z,25.33
2023-01-21T13:53:14.607Z,36.40
2023-01-21T13:56:34.628Z,18.77
2023-01-21T13:59:45.189Z,19.83
2023-01-21T14:02:55.834Z,12.87
2023-01-21T14:06:05.008Z,14.00
2023-01-21T14:09:25.499Z,28.10
2023-01-21T14:12:30.161Z,10.03
2023-01-21T14:15:31.739Z,19.07
2023-01-21T14:18:52.260Z,17.17
2023-01-21T14:22:13.010Z,15.57
2023-01-21T14:25:20.305Z,17.40
2023-01-21T14:28:42.118Z,25.53
2023-01-21T14:31:46.866Z,16.97
2023-01-21T14:35:09.888Z,13.03
2023-01-21T14:38:14.655Z,8.63
2023-01-21T14:41:16.269Z,7.63
2023-01-21T14:44:35.048Z,5.63
2023-01-21T14:47:39.763Z,8.40
2023-01-21T14:50:54.874Z,8.20
2023-01-21T14:54:14.163Z,8.23
2023-01-21T14:57:24.151Z,10.10
2023-01-21T15:00:29.283Z,11.50
2023-01-21T15:03:31.571Z,9.27
2023-01-21T15:06:36.440Z,12.13
2023-01-21T15:09:41.798Z,6.07
2023-01-21T15:12:48.850Z,6.13
2023-01-21T15:16:05.791Z,11.03
2023-01-21T15:19:07.833Z,11.40
2023-01-21T15:22:18.580Z,11.97
2023-01-21T15:25:20.803Z,16.27
2023-01-21T15:28:25.292Z,17.87
2023-01-21T15:31:26.925Z,11.50
2023-01-21T15:34:29.719Z,15.23
2023-01-21T15:37:32.717Z,14.90
2023-01-21T15:40:57.608Z,14.47
2023-01-21T15:44:17.860Z,8.83
2023-01-21T15:47:19.502Z,8.13
2023-01-21T15:50:24.510Z,13.37
2023-01-21T15:53:44.669Z,16.80
2023-01-21T15:57:01.670Z,13.20
2023-01-21T16:00:12.153Z,27.67
2023-01-21T16:03:22.077Z,30.57
2023-01-21T16:06:32.650Z,20.93
2023-01-21T16:09:49.558Z,17.33
2023-01-21T16:13:09.656Z,17.60
2023-01-21T16:16:34.431Z,13.73
2023-01-21T16:19:41.042Z,11.73
2023-01-21T16:22:44.496Z,10.10
2023-01-21T16:25:50.428Z,9.97
2023-01-21T16:28:52.731Z,13.73
2023-01-21T16:32:00.056Z,11.53
2023-01-21T16:35:01.810Z,12.07
2023-01-21T16:38:03.480Z,12.80
2023-01-21T16:41:08.145Z,13.80
2023-01-21T16:44:15.500Z,16.30
2023-01-21T16:47:27.517Z,13.57
2023-01-21T16:50:30.787Z,9.43
2023-01-21T16:53:32.545Z,13.33
2023-01-21T16:56:34.141Z,17.30
2023-01-21T16:59:40.123Z,11.20
2023-01-21T17:02:41.745Z,26.90
2023-01-21T17:05:43.441Z,18.17
2023-01-21T17:08:46.904Z,14.80
2023-01-21T17:11:48.649Z,21.53
2023-01-21T17:14:54.937Z,15.60
2023-01-21T17:17:58.287Z,18.27
2023-01-21T17:21:05.984Z,17.93
2023-01-21T17:24:16.475Z,16.10
2023-01-21T17:27:20.484Z,17.53
2023-01-21T17:30:25.068Z,19.73
2023-01-21T17:33:27.704Z,12.47
2023-01-21T17:36:36.514Z,11.70
2023-01-21T17:39:48.151Z,7.70
2023-01-21T17:42:49.774Z,13.60
2023-01-21T17:45:53.039Z,13.43
2023-01-21T17:48:56.058Z,19.10
2023-01-21T17:51:57.762Z,16.83
2023-01-21T17:55:13.271Z,12.80
2023-01-21T17:58:33.719Z,10.70
2023-01-21T18:01:35.390Z,16.93
2023-01-21T18:04:36.999Z,44.43
2023-01-21T18:07:38.620Z,17.10
2023-01-21T18:10:40.696Z,73.43
2023-01-21T18:13:42.473Z,14.60
2023-01-21T18:16:44.551Z,18.10
2023-01-21T18:19:46.332Z,39.67
2023-01-21T18:22:48.859Z,35.80
2023-01-21T18:25:54.240Z,30.73
2023-01-21T18:28:55.935Z,28.47
2023-01-21T18:31:57.891Z,28.93
2023-01-21T18:34:59.917Z,28.60
2023-01-21T18:38:01.632Z,54.20
2023-01-21T18:41:03.530Z,93.97
2023-01-21T18:44:05.289Z,19.57
2023-01-21T18:47:13.542Z,8.77
2023-01-21T18:50:19.732Z,14.30
2023-01-21T18:53:21.437Z,6.47
2023-01-21T18:56:23.053Z,12.37
2023-01-21T18:59:27.965Z,14.17
2023-01-21T19:02:29.816Z,23.17
2023-01-21T19:05:34.239Z,12.93
2023-01-21T19:08:35.860Z,6.67
2023-01-21T19:11:37.456Z,6.10
2023-01-21T19:14:39.112Z,8.87
2023-01-21T19:17:40.797Z,9.43
2023-01-21T19:20:42.776Z,15.93
2023-01-21T19:23:44.471Z,11.23
2023-01-21T19:26:46.213Z,5.70
2023-01-21T19:29:47.782Z,5.53
2023-01-21T19:32:49.862Z,5.47
2023-01-21T19:35:57.493Z,4.70
2023-01-21T19:38:59.230Z,8.00
2023-01-21T19:42:08.340Z,8.30
2023-01-21T19:45:10.741Z,9.47
2023-01-21T19:48:13.322Z,9.70
2023-01-21T19:51:14.980Z,5.87
2023-01-21T19:54:16.653Z,13.17
2023-01-21T19:57:18.258Z,10.00
2023-01-21T20:00:23.008Z,6.80
2023-01-21T20:03:25.449Z,3.77
2023-01-21T20:06:27.727Z,10.33
2023-01-21T20:09:29.402Z,4.10
2023-01-21T20:12:30.964Z,34.57
2023-01-21T20:15:34.275Z,3.40
2023-01-21T20:18:35.930Z,6.43
2023-01-21T20:21:50.004Z,4.83
2023-01-21T20:25:01.302Z,7.33
2023-01-21T20:28:04.818Z,6.50
2023-01-21T20:31:08.074Z,18.17
2023-01-21T20:34:09.974Z,15.73
2023-01-21T20:37:13.678Z,7.37
2023-01-21T20:40:17.116Z,12.33
2023-01-21T20:43:20.348Z,23.50
2023-01-21T20:46:24.457Z,25.50
2023-01-21T20:49:26.053Z,14.20
2023-01-21T20:52:27.607Z,12.07
2023-01-21T20:55:30.128Z,9.37
2023-01-21T20:58:33.732Z,13.23
2023-01-21T21:01:36.769Z,14.20
2023-01-21T21:04:38.538Z,29.63
2023-01-21T21:07:40.279Z,25.40
2023-01-21T21:10:42.045Z,14.20
2023-01-21T21:13:43.892Z,7.63
2023-01-21T21:16:45.557Z,7.27
2023-01-21T21:19:47.336Z,4.03
2023-01-21T21:22:49.020Z,5.07
2023-01-21T21:25:50.796Z,4.13
2023-01-21T21:28:55.913Z,7.10
2023-01-21T21:32:00.451Z,3.03
2023-01-21T21:35:02.143Z,2.63
2023-01-21T21:38:05.108Z,3.57
2023-01-21T21:41:35.785Z,4.37
2023-01-21T21:44:38.947Z,4.27
2023-01-21T21:47:58.933Z,2.53
2023-01-21T21:51:00.593Z,1.57
2023-01-21T21:54:02.228Z,1.33
2023-01-21T21:57:03.855Z,4.87
2023-01-21T22:00:05.898Z,2.03
2023-01-21T22:03:07.674Z,2.50
2023-01-21T22:06:10.069Z,1.17
2023-01-21T22:09:12.035Z,2.23
2023-01-21T22:12:13.563Z,3.50
2023-01-21T22:15:15.375Z,1.50
2023-01-21T22:18:17.324Z,2.03
2023-01-21T22:21:20.310Z,2.30
2023-01-21T22:24:21.952Z,5.87
2023-01-21T22:27:23.581Z,3.97
2023-01-21T22:30:25.245Z,1.53
2023-01-21T22:33:26.810Z,4.60
2023-01-21T22:36:29.682Z,2.47
2023-01-21T22:39:32.100Z,2.40
2023-01-21T22:42:33.659Z,3.57
2023-01-21T22:45:35.284Z,4.23
2023-01-21T22:48:37.119Z,3.13
2023-01-21T22:51:38.728Z,2.90
2023-01-21T22:54:40.329Z,2.60
2023-01-21T22:57:41.985Z,3.07
2023-01-21T23:00:43.619Z,4.73
2023-01-21T23:03:45.273Z,3.07
2023-01-21T23:06:48.759Z,2.85
2023-01-21T23:09:50.532Z,2.20
2023-01-21T23:12:52.189Z,2.17
2023-01-21T23:15:54.034Z,2.50
2023-01-21T23:18:55.786Z,1.63
2023-01-21T23:21:57.425Z,1.87
2023-01-21T23:24:59.032Z,1.50
2023-01-21T23:28:00.952Z,6.10
2023-01-21T23:31:06.456Z,2.60
2023-01-21T23:34:08.159Z,1.10
2023-01-21T23:37:10.195Z,0.60
2023-01-21T23:40:11.942Z,1.03
2023-01-21T23:43:13.510Z,3.93
2023-01-21T23:46:22.394Z,3.63
2023-01-21T23:49:24.049Z,1.37
2023-01-21T23:52:25.604Z,1.07
2023-01-21T23:55:27.205Z,3.03
2023-01-21T23:58:28.845Z,1.60
